地図

経路データ

SID SEASON NUMBER BASIN SUBBASIN NAME ISO_TIME NATURE LAT LON WMO_WIND WMO_PRES WMO_AGENCY TRACK_TYPE DIST2LAND LANDFALL IFLAG USA_AGENCY USA_ATCF_ID USA_LAT USA_LON USA_RECORD USA_STATUS USA_WIND USA_PRES USA_SSHS USA_R34_NE USA_R34_SE USA_R34_SW USA_R34_NW USA_R50_NE USA_R50_SE USA_R50_SW USA_R50_NW USA_R64_NE USA_R64_SE USA_R64_SW USA_R64_NW USA_POCI USA_ROCI USA_RMW USA_EYE TOKYO_LAT TOKYO_LON TOKYO_GRADE TOKYO_WIND TOKYO_PRES TOKYO_R50_DIR TOKYO_R50_LONG TOKYO_R50_SHORT TOKYO_R30_DIR TOKYO_R30_LONG TOKYO_R30_SHORT TOKYO_LAND CMA_LAT CMA_LON CMA_CAT CMA_WIND CMA_PRES HKO_LAT HKO_LON HKO_CAT HKO_WIND HKO_PRES NEWDELHI_LAT NEWDELHI_LON NEWDELHI_GRADE NEWDELHI_WIND NEWDELHI_PRES NEWDELHI_CI NEWDELHI_DP NEWDELHI_POCI REUNION_LAT REUNION_LON REUNION_TYPE REUNION_WIND REUNION_PRES REUNION_TNUM REUNION_CI REUNION_RMW REUNION_R34_NE REUNION_R34_SE REUNION_R34_SW REUNION_R34_NW REUNION_R50_NE REUNION_R50_SE REUNION_R50_SW REUNION_R50_NW REUNION_R64_NE REUNION_R64_SE REUNION_R64_SW REUNION_R64_NW BOM_LAT BOM_LON BOM_TYPE BOM_WIND BOM_PRES BOM_TNUM BOM_CI BOM_RMW BOM_R34_NE BOM_R34_SE BOM_R34_SW BOM_R34_NW BOM_R50_NE BOM_R50_SE BOM_R50_SW BOM_R50_NW BOM_R64_NE BOM_R64_SE BOM_R64_SW BOM_R64_NW BOM_ROCI BOM_POCI BOM_EYE BOM_POS_METHOD BOM_PRES_METHOD NADI_LAT NADI_LON NADI_CAT NADI_WIND NADI_PRES WELLINGTON_LAT WELLINGTON_LON WELLINGTON_WIND WELLINGTON_PRES DS824_LAT DS824_LON DS824_STAGE DS824_WIND DS824_PRES TD9636_LAT TD9636_LON TD9636_STAGE TD9636_WIND TD9636_PRES TD9635_LAT TD9635_LON TD9635_WIND TD9635_PRES TD9635_ROCI NEUMANN_LAT NEUMANN_LON NEUMANN_CLASS NEUMANN_WIND NEUMANN_PRES MLC_LAT MLC_LON MLC_CLASS MLC_WIND MLC_PRES USA_GUST BOM_GUST BOM_GUST_PER REUNION_GUST REUNION_GUST_PER USA_SEAHGT USA_SEARAD_NE USA_SEARAD_SE USA_SEARAD_SW USA_SEARAD_NW STORM_SPEED STORM_DIR
1970166N17111 1970 50 WP MM NOT_NAMED 1970-06-14 12:00:00 TS 17.0000 111.400 main 215 215 __O___________ -1 17.0000 111.400 0 19 1004 16 69
1970166N17111 1970 50 WP MM NOT_NAMED 1970-06-14 15:00:00 TS 17.2832 112.155 main 245 245 __P___________ -1 17.2832 112.155 0 19 1004 15 71
1970166N17111 1970 50 WP MM NOT_NAMED 1970-06-14 18:00:00 TS 17.5000 112.900 main 292 292 __O___________ -1 17.5000 112.900 0 19 1004 14 78
1970166N17111 1970 50 WP MM NOT_NAMED 1970-06-14 21:00:00 TS 17.5895 113.635 main 353 353 __P___________ -1 17.5895 113.635 0 19 1004 14 90
1970166N17111 1970 50 WP MM NOT_NAMED 1970-06-15 00:00:00 TS 17.5000 114.400 main 428 428 __O___________ -1 17.5000 114.400 0 19 1004 16 108
1970166N17111 1970 50 WP MM NOT_NAMED 1970-06-15 03:00:00 TS 17.0976 115.259 main 484 394 __P___________ -1 17.0976 115.259 0 24 1002 18 113
1970166N17111 1970 50 WP MM NOT_NAMED 1970-06-15 06:00:00 TS 16.8000 116.100 main 394 325 __O___________ -1 16.8000 116.100 1 29 1000 15 94
1970166N17111 1970 50 WP MM NOT_NAMED 1970-06-15 09:00:00 TS 16.9923 116.852 main 318 279 __P___________ -1 16.9923 116.852 1 26 1000 15 62
1970166N17111 1970 50 WP MM NOT_NAMED 1970-06-15 12:00:00 TS 17.5000 117.500 main 279 249 __O___________ -1 17.5000 117.500 1 23 1000 16 43
1970166N17111 1970 50 WP MM NOT_NAMED 1970-06-15 15:00:00 TS 18.1770 118.015 main 252 228 __P___________ -1 18.1770 118.015 1 23 1000 17 34
1970166N17111 1970 50 WP MM NOT_NAMED 1970-06-15 18:00:00 TS 18.9000 118.500 main 228 193 __O___________ -1 18.9000 118.500 1 23 1000 17 39
1970166N17111 1970 50 WP MM NOT_NAMED 1970-06-15 21:00:00 TS 19.4601 119.107 main 200 183 __P___________ -1 19.4601 119.107 1 23 1000 15 49
1970166N17111 1970 50 WP MM NOT_NAMED 1970-06-16 00:00:00 TS 19.9000 119.700 main 185 179 __O___________ -1 19.9000 119.700 1 23 1000 13 53
1970166N17111 1970 50 WP MM NOT_NAMED 1970-06-16 03:00:00 TS 20.2147 120.173 main 189 156 __P___________ -1 20.2147 120.173 1 23 1000 10 55
1970166N17111 1970 50 WP MM NOT_NAMED 1970-06-16 06:00:00 TS 20.5000 120.600 main 156 123 __O___________ -1 20.5000 120.600 1 23 1001 11 52
1970166N17111 1970 50 WP MM NOT_NAMED 1970-06-16 09:00:00 TS 20.8700 121.073 main 113 91 __P___________ -1 20.8700 121.073 1 23 1002 12 46
1970166N17111 1970 50 WP MM NOT_NAMED 1970-06-16 12:00:00 TS 21.3000 121.500 main 91 85 __O___________ -1 21.3000 121.500 1 23 1003 12 40
1970166N17111 1970 50 WP MM NOT_NAMED 1970-06-16 15:00:00 TS 21.7700 121.875 main 103 103 __P___________ -1 21.7700 121.875 1 21 1003 12 29
1970166N17111 1970 50 WP MM NOT_NAMED 1970-06-16 18:00:00 TS 22.3000 122.100 main 113 88 __O___________ -1 22.3000 122.100 0 19 1003 11 13
1970166N17111 1970 50 WP MM NOT_NAMED 1970-06-16 21:00:00 TS 22.8772 122.155 main 84 55 __P___________ -1 22.8772 122.155 0 19 1003 12 356
1970166N17111 1970 50 WP MM NOT_NAMED 1970-06-17 00:00:00 TS 23.5000 122.000 main 55 0 __O___________ -1 23.5000 122.000 0 19 1003 14 340
1970166N17111 1970 50 WP MM NOT_NAMED 1970-06-17 03:00:00 TS 24.1879 121.624 main 0 0 __P___________ -1 24.1879 121.624 0 19 1003 15 331
1970166N17111 1970 50 WP MM NOT_NAMED 1970-06-17 06:00:00 TS 24.8000 121.200 main 0 0 __O___________ -1 24.8000 121.200 0 19 1003 12 327
1970166N17111 1970 50 WP MM NOT_NAMED 1970-06-17 09:00:00 TS 25.1649 120.925 main 24 24 __P___________ -1 25.1649 120.925 0 19 1003 8 333
1970166N17111 1970 50 WP MM NOT_NAMED 1970-06-17 12:00:00 TS 25.5000 120.800 main 59 59 __O___________ -1 25.5000 120.800 0 19 1004 8 356
1970166N17111 1970 50 WP MM NOT_NAMED 1970-06-17 15:00:00 TS 25.9951 120.850 main 96 81 __P___________ -1 25.9951 120.850 0 19 1004 11 9
1970166N17111 1970 50 WP MM NOT_NAMED 1970-06-17 18:00:00 TS 26.6000 121.000 main 81 __O___________ -1 26.6000 121.000 0 19 1004 12 13

デジタル台風データ・検索

IBTrACS Databaseについて

本データベースは、米国NOAAが公開する1842年以降の世界の熱帯低気圧のベストトラックデータアーカイブInternational Best Track Archive for Climate Stewardship (IBTrACS)を、ウェブで閲覧しやすい形式に変換したものです。

最終更新日:2021-12-03